createdAt,value
2023-01-15T00:03:38.044Z,1.63
2023-01-15T00:06:27.082Z,1.64
2023-01-15T00:09:15.967Z,1.60
2023-01-15T00:12:03.279Z,1.87
2023-01-15T00:14:50.518Z,1.82
2023-01-15T00:17:37.593Z,1.77
2023-01-15T00:20:24.903Z,1.66
2023-01-15T00:23:31.931Z,1.86
2023-01-15T00:26:40.497Z,1.99
2023-01-15T00:29:28.054Z,2.08
2023-01-15T00:32:15.152Z,1.85
2023-01-15T00:35:03.296Z,1.79
2023-01-15T00:37:50.693Z,1.92
2023-01-15T00:40:37.763Z,1.89
2023-01-15T00:43:24.863Z,1.81
2023-01-15T00:46:12.056Z,1.76
2023-01-15T00:48:59.251Z,1.74
2023-01-15T00:51:47.650Z,2.17
2023-01-15T00:54:34.727Z,1.98
2023-01-15T00:57:21.869Z,1.86
2023-01-15T01:00:09.647Z,2.11
2023-01-15T01:02:57.502Z,1.96
2023-01-15T01:05:44.566Z,1.80
2023-01-15T01:08:31.978Z,2.06
2023-01-15T01:11:24.097Z,1.93
2023-01-15T01:14:12.958Z,1.81
2023-01-15T01:17:00.122Z,1.92
2023-01-15T01:19:47.204Z,2.01
2023-01-15T01:22:34.302Z,1.76
2023-01-15T01:25:21.471Z,1.87
2023-01-15T01:28:08.671Z,1.87
2023-01-15T01:30:55.756Z,1.74
2023-01-15T01:33:42.838Z,1.99
2023-01-15T01:36:34.226Z,1.80
2023-01-15T01:39:21.410Z,1.66
2023-01-15T01:42:13.793Z,1.95
2023-01-15T01:45:04.989Z,1.84
2023-01-15T01:47:56.465Z,1.67
2023-01-15T01:50:45.496Z,1.82
2023-01-15T01:53:32.827Z,1.90
2023-01-15T01:56:20.557Z,1.71
2023-01-15T01:59:09.112Z,1.54
2023-01-15T02:01:56.668Z,1.87
2023-01-15T02:04:44.622Z,1.71
2023-01-15T02:07:33.499Z,1.56
2023-01-15T02:10:20.703Z,1.68
2023-01-15T02:13:20.634Z,1.89
2023-01-15T02:16:16.956Z,1.60
2023-01-15T02:19:30.385Z,1.57
2023-01-15T02:22:36.204Z,1.72
2023-01-15T02:25:45.180Z,1.56
2023-01-15T02:28:40.882Z,1.60
2023-01-15T02:31:34.354Z,1.74
2023-01-15T02:34:27.677Z,1.61
2023-01-15T02:37:20.473Z,1.54
2023-01-15T02:40:09.477Z,1.58
2023-01-15T02:42:58.836Z,1.55
2023-01-15T02:45:49.597Z,1.88
2023-01-15T02:48:39.549Z,1.86
2023-01-15T02:51:31.531Z,1.66
2023-01-15T02:54:20.535Z,1.62
2023-01-15T02:57:10.394Z,1.78
2023-01-15T03:00:00.017Z,1.89
2023-01-15T03:02:59.642Z,1.80
2023-01-15T03:05:52.000Z,1.80
2023-01-15T03:08:39.178Z,1.78
2023-01-15T03:11:27.321Z,1.85
2023-01-15T03:15:03.418Z,1.95
2023-01-15T03:17:55.794Z,2.12
2023-01-15T03:20:52.261Z,2.10
2023-01-15T03:23:44.969Z,2.11
2023-01-15T03:26:32.138Z,2.13
2023-01-15T03:29:20.429Z,2.06
2023-01-15T03:32:07.742Z,1.93
2023-01-15T03:34:56.407Z,1.97
2023-01-15T03:37:43.628Z,1.95
2023-01-15T03:40:33.342Z,1.93
2023-01-15T03:43:41.254Z,2.01
2023-01-15T03:46:42.089Z,2.01
2023-01-15T03:49:49.967Z,2.07
2023-01-15T03:52:48.379Z,2.02
2023-01-15T03:55:38.534Z,1.99
2023-01-15T03:58:49.146Z,1.94
2023-01-15T04:01:39.768Z,1.90
2023-01-15T04:04:28.509Z,2.00
2023-01-15T04:07:16.163Z,1.88
2023-01-15T04:10:04.455Z,2.01
2023-01-15T04:12:51.602Z,2.03
2023-01-15T04:15:38.738Z,2.15
2023-01-15T04:18:26.239Z,2.25
2023-01-15T04:21:13.346Z,2.01
2023-01-15T04:24:00.364Z,1.97
2023-01-15T04:26:47.570Z,2.16
2023-01-15T04:29:34.640Z,2.08
2023-01-15T04:32:21.799Z,2.09
2023-01-15T04:35:09.257Z,1.96
2023-01-15T04:37:58.213Z,2.03
2023-01-15T04:41:03.984Z,1.98
2023-01-15T04:44:06.801Z,2.07
2023-01-15T04:46:54.286Z,1.97
2023-01-15T04:49:41.427Z,2.07
2023-01-15T04:52:28.658Z,2.20
2023-01-15T04:55:16.160Z,2.39
2023-01-15T04:58:06.252Z,2.13
2023-01-15T05:00:53.352Z,2.02
2023-01-15T05:03:41.080Z,2.06
2023-01-15T05:06:34.333Z,2.03
2023-01-15T05:09:21.499Z,2.36
2023-01-15T05:12:11.260Z,2.20
2023-01-15T05:14:58.428Z,2.09
2023-01-15T05:17:45.666Z,2.10
2023-01-15T05:20:36.836Z,2.13
2023-01-15T05:23:23.881Z,2.19
2023-01-15T05:26:11.354Z,2.09
2023-01-15T05:29:00.711Z,2.43
2023-01-15T05:31:47.860Z,2.24
2023-01-15T05:34:35.109Z,2.16
2023-01-15T05:37:22.267Z,2.13
2023-01-15T05:40:09.983Z,2.25
2023-01-15T05:42:57.065Z,2.57
2023-01-15T05:45:44.232Z,2.48
2023-01-15T05:48:31.609Z,2.34
2023-01-15T05:51:18.761Z,2.41
2023-01-15T05:54:08.031Z,2.70
2023-01-15T05:56:55.831Z,2.53
2023-01-15T05:59:44.387Z,2.47
2023-01-15T06:02:31.607Z,2.53
2023-01-15T06:05:20.467Z,2.56
2023-01-15T06:08:07.590Z,2.35
2023-01-15T06:10:55.819Z,2.27
2023-01-15T06:13:42.962Z,2.35
2023-01-15T06:16:30.207Z,2.31
2023-01-15T06:19:17.344Z,2.49
2023-01-15T06:22:04.428Z,2.59
2023-01-15T06:24:51.521Z,2.37
2023-01-15T06:27:40.001Z,2.33
2023-01-15T06:30:27.133Z,2.38
2023-01-15T06:33:14.174Z,2.39
2023-01-15T06:36:13.441Z,2.66
2023-01-15T06:39:00.583Z,2.62
2023-01-15T06:42:06.191Z,2.46
2023-01-15T06:45:13.631Z,2.42
2023-01-15T06:48:01.532Z,2.39
2023-01-15T06:50:51.057Z,2.62
2023-01-15T06:53:38.092Z,2.51
2023-01-15T06:56:25.153Z,2.51
2023-01-15T06:59:12.660Z,2.30
2023-01-15T07:02:01.103Z,2.29
2023-01-15T07:04:49.245Z,2.21
2023-01-15T07:07:36.602Z,2.24
2023-01-15T07:10:23.826Z,2.41
2023-01-15T07:13:10.984Z,2.60
2023-01-15T07:16:04.043Z,2.66
2023-01-15T07:18:52.314Z,2.49
2023-01-15T07:21:39.682Z,2.41
2023-01-15T07:24:26.889Z,2.40
2023-01-15T07:27:16.149Z,2.64
2023-01-15T07:33:14.431Z,2.66
2023-01-15T07:36:06.567Z,2.73
2023-01-15T07:38:53.918Z,2.53
2023-01-15T07:42:00.187Z,2.43
2023-01-15T07:45:05.952Z,2.77
2023-01-15T07:48:14.010Z,2.83
2023-01-15T07:51:06.277Z,2.63
2023-01-15T07:53:53.344Z,2.62
2023-01-15T07:56:40.569Z,2.73
2023-01-15T07:59:27.612Z,2.97
2023-01-15T08:02:16.306Z,3.04
2023-01-15T08:05:03.524Z,2.92
2023-01-15T08:07:50.746Z,2.84
2023-01-15T08:10:57.820Z,2.77
2023-01-15T08:14:06.179Z,3.09
2023-01-15T08:16:53.268Z,3.13
2023-01-15T08:19:40.335Z,3.12
2023-01-15T08:22:27.440Z,3.07
2023-01-15T08:25:17.228Z,3.06
2023-01-15T08:28:09.360Z,3.02
2023-01-15T08:30:56.362Z,3.46
2023-01-15T08:33:43.512Z,3.50
2023-01-15T08:36:30.578Z,3.67
2023-01-15T08:39:18.816Z,3.58
2023-01-15T08:42:06.199Z,3.54
2023-01-15T08:44:53.256Z,3.61
2023-01-15T08:47:40.404Z,3.55
2023-01-15T08:50:27.490Z,3.55
2023-01-15T08:53:14.649Z,3.96
2023-01-15T08:56:01.900Z,4.05
2023-01-15T08:58:49.041Z,3.77
2023-01-15T09:01:36.314Z,3.77
2023-01-15T09:04:23.584Z,3.96
2023-01-15T09:07:11.303Z,3.91
2023-01-15T09:09:58.356Z,4.29
2023-01-15T09:12:45.503Z,4.28
2023-01-15T09:15:34.152Z,4.08
2023-01-15T09:18:21.205Z,4.35
2023-01-15T09:21:08.282Z,4.32
2023-01-15T09:23:55.543Z,4.28
2023-01-15T09:26:42.592Z,4.27
2023-01-15T09:29:29.671Z,4.37
2023-01-15T09:32:16.780Z,4.78
2023-01-15T09:35:03.958Z,4.92
2023-01-15T09:37:54.699Z,4.89
2023-01-15T09:40:59.587Z,4.82
2023-01-15T09:43:51.221Z,5.01
2023-01-15T09:46:38.437Z,5.02
2023-01-15T09:50:07.466Z,4.77
2023-01-15T09:53:26.644Z,4.71
2023-01-15T09:56:27.962Z,5.06
2023-01-15T09:59:35.181Z,5.21
2023-01-15T10:02:36.165Z,5.11
2023-01-15T10:05:35.347Z,5.37
2023-01-15T10:08:32.010Z,5.30
2023-01-15T10:11:49.339Z,5.50
2023-01-15T10:14:59.088Z,5.49
2023-01-15T10:17:48.883Z,5.27
2023-01-15T10:20:46.543Z,5.61
2023-01-15T10:23:40.445Z,5.58
2023-01-15T10:26:39.837Z,5.42
2023-01-15T10:29:49.754Z,5.60
2023-01-15T10:33:01.051Z,5.38
2023-01-15T10:36:08.105Z,5.39
2023-01-15T10:38:57.992Z,5.32
2023-01-15T10:42:26.975Z,5.53
2023-01-15T10:45:23.061Z,5.36
2023-01-15T10:48:19.830Z,5.37
2023-01-15T10:51:30.617Z,5.74
2023-01-15T10:54:37.890Z,5.30
2023-01-15T10:57:39.901Z,5.70
2023-01-15T11:00:27.441Z,5.70
2023-01-15T11:03:20.912Z,5.58
2023-01-15T11:06:15.343Z,5.50
2023-01-15T11:09:11.568Z,5.49
2023-01-15T11:12:47.544Z,5.43
2023-01-15T11:15:53.057Z,5.46
2023-01-15T11:19:06.505Z,5.20
2023-01-15T11:21:55.029Z,5.48
2023-01-15T11:24:54.678Z,5.53
2023-01-15T11:27:41.921Z,5.44
2023-01-15T11:30:34.206Z,5.53
2023-01-15T11:33:25.261Z,5.58
2023-01-15T11:36:24.502Z,5.19
2023-01-15T11:39:27.067Z,5.30
2023-01-15T11:42:35.445Z,5.10
2023-01-15T11:45:46.304Z,5.04
2023-01-15T11:49:06.246Z,4.94
2023-01-15T11:51:53.601Z,4.97
2023-01-15T11:54:43.949Z,4.99
2023-01-15T11:57:33.123Z,5.32
2023-01-15T12:00:27.550Z,5.17
2023-01-15T12:03:20.100Z,5.09
2023-01-15T12:06:14.131Z,5.28
2023-01-15T12:09:07.343Z,5.28
2023-01-15T12:12:12.930Z,5.29
2023-01-15T12:15:12.093Z,5.09
2023-01-15T12:18:08.819Z,5.25
2023-01-15T12:21:25.495Z,5.12
2023-01-15T12:24:26.067Z,4.79
2023-01-15T12:27:38.421Z,4.71
2023-01-15T12:31:04.224Z,5.02
2023-01-15T12:34:29.939Z,4.82
2023-01-15T12:37:28.467Z,4.70
2023-01-15T12:40:15.521Z,4.71
2023-01-15T12:43:21.407Z,4.77
2023-01-15T12:46:12.983Z,5.07
2023-01-15T12:49:35.720Z,4.65
2023-01-15T12:52:28.849Z,4.91
2023-01-15T12:55:21.223Z,4.81
2023-01-15T12:58:21.358Z,4.95
2023-01-15T13:01:20.141Z,4.91
2023-01-15T13:04:31.765Z,4.85
2023-01-15T13:07:45.029Z,4.78
2023-01-15T13:10:35.568Z,4.98
2023-01-15T13:13:24.819Z,5.04
2023-01-15T13:16:24.507Z,4.90
2023-01-15T13:19:43.257Z,4.76
2023-01-15T13:22:37.975Z,4.65
2023-01-15T13:25:29.835Z,4.78
2023-01-15T13:28:59.027Z,4.78
2023-01-15T13:31:52.093Z,5.00
2023-01-15T13:38:22.812Z,4.82
2023-01-15T13:41:10.572Z,4.57
2023-01-15T13:44:06.304Z,4.76
2023-01-15T13:47:24.978Z,4.81
2023-01-15T13:50:18.419Z,4.96
2023-01-15T13:53:13.725Z,4.92
2023-01-15T13:56:09.630Z,4.91
2023-01-15T13:59:06.191Z,4.89
2023-01-15T14:01:53.532Z,4.70
2023-01-15T14:04:41.032Z,4.76
2023-01-15T14:07:37.312Z,4.65
2023-01-15T14:10:35.822Z,4.90
2023-01-15T14:13:27.798Z,4.56
2023-01-15T14:16:15.004Z,4.59
2023-01-15T14:19:20.996Z,4.44
2023-01-15T14:22:16.085Z,4.45
2023-01-15T14:25:27.995Z,4.64
2023-01-15T14:28:30.001Z,4.70
2023-01-15T14:31:36.249Z,4.75
2023-01-15T14:34:27.485Z,4.67
2023-01-15T14:37:30.620Z,4.68
2023-01-15T14:40:21.935Z,4.68
2023-01-15T14:43:18.698Z,4.62
2023-01-15T14:46:34.677Z,4.72
2023-01-15T14:49:42.531Z,4.69
2023-01-15T14:52:30.411Z,4.68
2023-01-15T14:55:19.324Z,4.80
2023-01-15T14:58:15.246Z,4.71
2023-01-15T15:01:16.298Z,4.76
2023-01-15T15:04:09.398Z,4.79
2023-01-15T15:07:08.097Z,4.83
2023-01-15T15:09:55.960Z,4.86
2023-01-15T15:13:29.441Z,4.80
2023-01-15T15:16:26.112Z,4.89
2023-01-15T15:19:28.378Z,4.86
2023-01-15T15:22:22.498Z,4.84
2023-01-15T15:25:19.805Z,4.86
2023-01-15T15:28:11.133Z,4.91
2023-01-15T15:31:06.752Z,5.03
2023-01-15T15:33:56.477Z,4.91
2023-01-15T15:36:46.219Z,4.92
2023-01-15T15:39:52.687Z,4.87
2023-01-15T15:43:11.325Z,4.86
2023-01-15T15:46:17.078Z,4.87
2023-01-15T15:49:06.387Z,4.99
2023-01-15T15:51:54.271Z,5.02
2023-01-15T15:54:41.633Z,4.89
2023-01-15T15:57:32.575Z,4.90
2023-01-15T16:00:26.056Z,4.89
2023-01-15T16:03:26.223Z,4.98
2023-01-15T16:06:20.332Z,5.06
2023-01-15T16:09:11.393Z,5.05
2023-01-15T16:12:07.732Z,5.04
2023-01-15T16:14:56.988Z,5.04
2023-01-15T16:17:46.478Z,4.98
2023-01-15T16:20:34.401Z,5.07
2023-01-15T16:23:29.370Z,5.12
2023-01-15T16:26:23.231Z,5.07
2023-01-15T16:29:20.320Z,5.02
2023-01-15T16:32:12.915Z,5.04
2023-01-15T16:35:07.058Z,5.03
2023-01-15T16:37:58.278Z,5.00
2023-01-15T16:40:48.512Z,5.11
2023-01-15T16:44:00.692Z,4.89
2023-01-15T16:46:55.569Z,5.01
2023-01-15T16:49:43.915Z,4.98
2023-01-15T16:52:47.670Z,5.05
2023-01-15T16:55:35.731Z,5.16
2023-01-15T16:58:39.463Z,5.17
2023-01-15T17:02:00.576Z,5.08
2023-01-15T17:04:49.388Z,4.94
2023-01-15T17:07:39.441Z,4.92
2023-01-15T17:10:28.771Z,4.91
2023-01-15T17:13:19.919Z,5.08
2023-01-15T17:16:18.361Z,5.09
2023-01-15T17:19:08.555Z,5.02
2023-01-15T17:21:56.545Z,4.99
2023-01-15T17:24:52.041Z,4.84
2023-01-15T17:27:40.239Z,4.78
2023-01-15T17:30:32.372Z,4.96
2023-01-15T17:33:22.329Z,4.79
2023-01-15T17:36:10.742Z,4.70
2023-01-15T17:38:58.735Z,4.63
2023-01-15T17:41:46.982Z,4.66
2023-01-15T17:44:34.663Z,4.80
2023-01-15T17:47:22.216Z,4.60
2023-01-15T17:50:10.415Z,4.81
2023-01-15T17:52:58.432Z,4.57
2023-01-15T17:56:04.136Z,4.51
2023-01-15T17:59:10.790Z,4.62
2023-01-15T18:02:17.243Z,4.77
2023-01-15T18:05:25.685Z,4.77
2023-01-15T18:08:13.940Z,4.76
2023-01-15T18:11:02.111Z,4.57
2023-01-15T18:13:53.649Z,4.39
2023-01-15T18:16:41.392Z,4.46
2023-01-15T18:19:29.285Z,4.54
2023-01-15T18:22:17.786Z,4.52
2023-01-15T18:25:07.035Z,4.49
2023-01-15T18:27:54.600Z,4.44
2023-01-15T18:30:42.194Z,4.52
2023-01-15T18:33:30.352Z,4.37
2023-01-15T18:36:18.435Z,4.49
2023-01-15T18:39:09.207Z,4.47
2023-01-15T18:41:58.091Z,4.24
2023-01-15T18:45:04.640Z,4.44
2023-01-15T18:47:54.624Z,4.09
2023-01-15T18:50:42.267Z,4.16
2023-01-15T18:53:30.085Z,4.18
2023-01-15T18:56:38.019Z,4.04
2023-01-15T18:59:25.703Z,4.24
2023-01-15T19:02:16.481Z,4.20
2023-01-15T19:05:04.911Z,4.01
2023-01-15T19:07:53.245Z,4.06
2023-01-15T19:10:41.248Z,4.00
2023-01-15T19:13:29.191Z,4.14
2023-01-15T19:16:35.373Z,4.07
2023-01-15T19:19:23.150Z,4.14
2023-01-15T19:22:29.979Z,4.22
2023-01-15T19:25:18.902Z,4.17
2023-01-15T19:28:08.667Z,4.19
2023-01-15T19:31:15.318Z,3.97
2023-01-15T19:34:32.179Z,4.07
2023-01-15T19:37:18.251Z,4.09
2023-01-15T19:40:09.872Z,4.08
2023-01-15T19:43:16.491Z,3.97
2023-01-15T19:46:23.248Z,3.86
2023-01-15T19:49:37.710Z,3.95
2023-01-15T19:52:36.279Z,4.01
2023-01-15T19:55:24.960Z,3.99
2023-01-15T19:58:14.998Z,3.84
2023-01-15T20:01:02.851Z,3.74
2023-01-15T20:03:52.147Z,3.78
2023-01-15T20:06:43.076Z,4.00
2023-01-15T20:09:33.125Z,3.95
2023-01-15T20:12:59.636Z,3.90
2023-01-15T20:15:48.341Z,3.84
2023-01-15T20:18:36.537Z,3.85
2023-01-15T20:21:25.312Z,3.91
2023-01-15T20:24:13.306Z,3.98
2023-01-15T20:27:01.481Z,3.71
2023-01-15T20:29:53.210Z,3.81
2023-01-15T20:32:43.970Z,3.83
2023-01-15T20:35:32.295Z,3.68
2023-01-15T20:38:21.031Z,3.59
2023-01-15T20:41:34.155Z,3.80
2023-01-15T20:44:40.404Z,3.67
2023-01-15T20:47:47.714Z,3.29
2023-01-15T20:50:37.183Z,3.43
2023-01-15T20:53:25.417Z,3.36
2023-01-15T20:56:15.937Z,3.29
2023-01-15T20:59:03.194Z,3.38
2023-01-15T21:01:52.445Z,3.42
2023-01-15T21:04:41.994Z,3.35
2023-01-15T21:07:29.651Z,3.38
2023-01-15T21:10:18.148Z,3.45
2023-01-15T21:13:05.786Z,3.31
2023-01-15T21:16:06.564Z,3.37
2023-01-15T21:18:54.147Z,3.13
2023-01-15T21:21:41.522Z,3.18
2023-01-15T21:24:29.015Z,3.13
2023-01-15T21:27:16.153Z,3.12
2023-01-15T21:30:04.765Z,3.08
2023-01-15T21:32:52.100Z,3.18
2023-01-15T21:35:40.754Z,3.10
2023-01-15T21:38:28.168Z,3.06
2023-01-15T21:41:15.636Z,3.03
2023-01-15T21:44:21.817Z,3.12
2023-01-15T21:47:17.521Z,3.13
2023-01-15T21:50:05.675Z,3.15
2023-01-15T21:52:52.826Z,3.12
2023-01-15T21:55:40.025Z,3.10
2023-01-15T21:58:27.131Z,2.95
2023-01-15T22:01:16.055Z,2.90
2023-01-15T22:04:03.262Z,2.80
2023-01-15T22:06:51.682Z,2.80
2023-01-15T22:09:39.103Z,2.94
2023-01-15T22:12:26.133Z,2.84
2023-01-15T22:15:13.345Z,2.94
2023-01-15T22:18:00.510Z,3.00
2023-01-15T22:20:57.034Z,3.10
2023-01-15T22:23:44.849Z,3.20
2023-01-15T22:26:32.222Z,3.21
2023-01-15T22:29:30.615Z,3.14
2023-01-15T22:32:17.667Z,3.04
2023-01-15T22:35:06.137Z,2.90
2023-01-15T22:37:53.193Z,3.09
2023-01-15T22:40:40.267Z,2.81
2023-01-15T22:43:30.590Z,2.90
2023-01-15T22:46:17.692Z,2.84
2023-01-15T22:49:04.783Z,3.01
2023-01-15T22:51:52.140Z,2.89
2023-01-15T22:54:39.398Z,3.00
2023-01-15T22:57:26.749Z,2.96
2023-01-15T23:00:14.248Z,2.88
2023-01-15T23:03:07.167Z,2.80
2023-01-15T23:05:54.271Z,2.80
2023-01-15T23:08:41.301Z,2.79
2023-01-15T23:11:29.804Z,2.69
2023-01-15T23:14:17.918Z,2.66
2023-01-15T23:17:05.023Z,2.67
2023-01-15T23:19:52.129Z,2.70
2023-01-15T23:22:39.994Z,2.82
2023-01-15T23:25:27.328Z,2.75
2023-01-15T23:28:14.601Z,2.77
2023-01-15T23:31:01.739Z,2.77
2023-01-15T23:33:48.905Z,2.64
2023-01-15T23:36:35.977Z,2.78
2023-01-15T23:39:23.089Z,2.64
2023-01-15T23:42:29.427Z,2.62
2023-01-15T23:45:34.921Z,2.73
2023-01-15T23:48:21.990Z,2.72
2023-01-15T23:51:09.532Z,2.84
2023-01-15T23:54:05.612Z,2.79
2023-01-15T23:56:52.729Z,2.68
2023-01-15T23:59:39.862Z,2.66
